sensor_id;sensor_type;location;lat;lon;timestamp;pressure;altitude;pressure_sealevel;temperature;humidity
41830;BME280;38614;43.472;23.936;2023-04-10T00:00:43;100584.06;;;6.38;100.00
41830;BME280;38614;43.472;23.936;2023-04-10T00:03:32;100564.81;;;6.20;100.00
41830;BME280;38614;43.472;23.936;2023-04-10T00:06:20;100593.28;;;6.33;100.00
41830;BME280;38614;43.472;23.936;2023-04-10T00:09:09;100595.69;;;6.26;100.00
41830;BME280;38614;43.472;23.936;2023-04-10T00:11:57;100581.25;;;6.12;100.00
41830;BME280;38614;43.472;23.936;2023-04-10T00:14:44;100576.59;;;6.12;100.00
41830;BME280;38614;43.472;23.936;2023-04-10T00:17:32;100578.53;;;6.12;100.00
41830;BME280;38614;43.472;23.936;2023-04-10T00:20:21;100594.38;;;6.15;100.00
41830;BME280;38614;43.472;23.936;2023-04-10T00:23:12;100582.84;;;6.04;100.00
41830;BME280;38614;43.472;23.936;2023-04-10T00:26:00;100554.56;;;5.86;100.00
41830;BME280;38614;43.472;23.936;2023-04-10T00:28:48;100577.66;;;5.94;100.00
41830;BME280;38614;43.472;23.936;2023-04-10T00:31:36;100588.13;;;5.92;100.00
41830;BME280;38614;43.472;23.936;2023-04-10T00:34:23;100546.69;;;5.62;100.00
41830;BME280;38614;43.472;23.936;2023-04-10T00:37:12;100575.50;;;5.82;100.00
41830;BME280;38614;43.472;23.936;2023-04-10T00:39:59;100576.44;;;5.78;100.00
41830;BME280;38614;43.472;23.936;2023-04-10T00:42:47;100526.13;;;5.42;100.00
41830;BME280;38614;43.472;23.936;2023-04-10T00:45:36;100570.28;;;5.72;100.00
41830;BME280;38614;43.472;23.936;2023-04-10T00:48:24;100566.75;;;5.71;100.00
41830;BME280;38614;43.472;23.936;2023-04-10T00:51:13;100525.84;;;5.53;100.00
41830;BME280;38614;43.472;23.936;2023-04-10T00:54:01;100549.50;;;5.80;100.00
41830;BME280;38614;43.472;23.936;2023-04-10T00:56:49;100564.47;;;5.73;100.00
41830;BME280;38614;43.472;23.936;2023-04-10T00:59:37;100558.03;;;5.69;100.00
41830;BME280;38614;43.472;23.936;2023-04-10T01:02:25;100562.84;;;5.64;100.00
41830;BME280;38614;43.472;23.936;2023-04-10T01:05:13;100513.41;;;5.47;100.00
41830;BME280;38614;43.472;23.936;2023-04-10T01:21:20;100559.88;;;5.52;100.00
41830;BME280;38614;43.472;23.936;2023-04-10T01:27:39;100567.47;;;5.55;100.00
41830;BME280;38614;43.472;23.936;2023-04-10T01:30:34;100506.69;;;5.22;100.00
41830;BME280;38614;43.472;23.936;2023-04-10T01:33:27;100539.16;;;5.37;100.00
41830;BME280;38614;43.472;23.936;2023-04-10T01:36:21;100552.19;;;5.31;100.00
41830;BME280;38614;43.472;23.936;2023-04-10T01:39:11;100561.97;;;5.24;100.00
41830;BME280;38614;43.472;23.936;2023-04-10T01:41:59;100559.25;;;5.24;100.00
41830;BME280;38614;43.472;23.936;2023-04-10T01:44:57;100543.19;;;5.08;100.00
41830;BME280;38614;43.472;23.936;2023-04-10T01:47:47;100518.41;;;4.91;100.00
41830;BME280;38614;43.472;23.936;2023-04-10T01:50:35;100520.09;;;5.01;100.00
41830;BME280;38614;43.472;23.936;2023-04-10T01:53:24;100525.94;;;5.08;100.00
41830;BME280;38614;43.472;23.936;2023-04-10T01:56:12;100512.38;;;5.03;100.00
41830;BME280;38614;43.472;23.936;2023-04-10T01:59:03;100562.63;;;5.29;100.00
41830;BME280;38614;43.472;23.936;2023-04-10T02:01:56;100544.38;;;5.16;100.00
41830;BME280;38614;43.472;23.936;2023-04-10T02:04:44;100554.09;;;5.22;100.00
41830;BME280;38614;43.472;23.936;2023-04-10T02:08:03;100554.34;;;5.12;100.00
41830;BME280;38614;43.472;23.936;2023-04-10T02:11:01;100557.19;;;5.07;100.00
41830;BME280;38614;43.472;23.936;2023-04-10T02:13:52;100540.16;;;4.88;100.00
41830;BME280;38614;43.472;23.936;2023-04-10T02:16:41;100521.91;;;4.83;100.00
41830;BME280;38614;43.472;23.936;2023-04-10T02:19:32;100553.47;;;5.03;100.00
41830;BME280;38614;43.472;23.936;2023-04-10T02:22:22;100469.84;;;4.52;100.00
41830;BME280;38614;43.472;23.936;2023-04-10T02:25:12;100535.91;;;4.81;100.00
41830;BME280;38614;43.472;23.936;2023-04-10T02:28:04;100547.72;;;4.91;100.00
41830;BME280;38614;43.472;23.936;2023-04-10T02:30:52;100518.06;;;4.84;100.00
41830;BME280;38614;43.472;23.936;2023-04-10T02:33:40;100528.38;;;4.87;100.00
41830;BME280;38614;43.472;23.936;2023-04-10T02:36:28;100513.63;;;4.74;100.00
41830;BME280;38614;43.472;23.936;2023-04-10T02:39:16;100548.03;;;4.89;100.00
41830;BME280;38614;43.472;23.936;2023-04-10T02:42:10;100543.19;;;4.86;100.00
41830;BME280;38614;43.472;23.936;2023-04-10T02:44:59;100524.16;;;4.81;100.00
41830;BME280;38614;43.472;23.936;2023-04-10T02:47:53;100540.88;;;4.79;100.00
41830;BME280;38614;43.472;23.936;2023-04-10T02:50:41;100522.47;;;4.71;100.00
41830;BME280;38614;43.472;23.936;2023-04-10T02:53:33;100490.53;;;4.44;100.00
41830;BME280;38614;43.472;23.936;2023-04-10T02:56:21;100532.69;;;4.79;100.00
41830;BME280;38614;43.472;23.936;2023-04-10T02:59:09;100498.22;;;4.56;100.00
41830;BME280;38614;43.472;23.936;2023-04-10T03:01:56;100529.63;;;4.81;100.00
41830;BME280;38614;43.472;23.936;2023-04-10T03:04:44;100535.59;;;4.83;100.00
41830;BME280;38614;43.472;23.936;2023-04-10T03:07:32;100522.09;;;4.64;100.00
41830;BME280;38614;43.472;23.936;2023-04-10T03:10:20;100519.16;;;4.61;100.00
41830;BME280;38614;43.472;23.936;2023-04-10T03:13:08;100544.38;;;4.71;100.00
41830;BME280;38614;43.472;23.936;2023-04-10T03:15:55;100469.84;;;4.16;100.00
41830;BME280;38614;43.472;23.936;2023-04-10T03:18:44;100554.81;;;4.69;100.00
41830;BME280;38614;43.472;23.936;2023-04-10T03:21:32;100560.94;;;4.66;100.00
41830;BME280;38614;43.472;23.936;2023-04-10T03:24:12;100508.88;;;4.44;100.00
41830;BME280;38614;43.472;23.936;2023-04-10T03:27:02;100555.31;;;4.71;100.00
41830;BME280;38614;43.472;23.936;2023-04-10T03:29:52;100556.34;;;4.75;100.00
41830;BME280;38614;43.472;23.936;2023-04-10T03:32:43;100540.13;;;4.65;100.00
41830;BME280;38614;43.472;23.936;2023-04-10T03:35:31;100567.03;;;4.85;100.00
41830;BME280;38614;43.472;23.936;2023-04-10T03:38:21;100558.88;;;4.94;100.00
41830;BME280;38614;43.472;23.936;2023-04-10T03:41:09;100539.91;;;4.75;100.00
41830;BME280;38614;43.472;23.936;2023-04-10T03:43:58;100555.56;;;4.83;100.00
41830;BME280;38614;43.472;23.936;2023-04-10T03:46:48;100556.25;;;4.89;100.00
41830;BME280;38614;43.472;23.936;2023-04-10T03:49:37;100555.94;;;4.91;100.00
41830;BME280;38614;43.472;23.936;2023-04-10T03:52:26;100569.91;;;5.03;100.00
41830;BME280;38614;43.472;23.936;2023-04-10T03:55:15;100575.63;;;5.15;100.00
41830;BME280;38614;43.472;23.936;2023-04-10T03:58:08;100578.03;;;5.17;100.00
41830;BME280;38614;43.472;23.936;2023-04-10T04:00:56;100579.59;;;5.09;100.00
41830;BME280;38614;43.472;23.936;2023-04-10T04:03:54;100573.81;;;5.10;100.00
41830;BME280;38614;43.472;23.936;2023-04-10T04:07:01;100572.50;;;5.08;100.00
41830;BME280;38614;43.472;23.936;2023-04-10T04:10:05;100578.47;;;5.10;100.00
41830;BME280;38614;43.472;23.936;2023-04-10T04:13:11;100577.97;;;5.30;100.00
41830;BME280;38614;43.472;23.936;2023-04-10T04:16:09;100583.44;;;5.30;100.00
41830;BME280;38614;43.472;23.936;2023-04-10T04:19:05;100568.81;;;5.35;100.00
41830;BME280;38614;43.472;23.936;2023-04-10T04:22:09;100576.34;;;5.29;100.00
41830;BME280;38614;43.472;23.936;2023-04-10T04:25:16;100536.19;;;4.94;100.00
41830;BME280;38614;43.472;23.936;2023-04-10T04:28:13;100576.34;;;5.29;100.00
41830;BME280;38614;43.472;23.936;2023-04-10T04:31:19;100545.34;;;5.20;100.00
41830;BME280;38614;43.472;23.936;2023-04-10T04:34:33;100583.75;;;5.51;100.00
41830;BME280;38614;43.472;23.936;2023-04-10T04:37:36;100569.06;;;5.56;100.00
41830;BME280;38614;43.472;23.936;2023-04-10T04:40:42;100580.63;;;5.75;100.00
41830;BME280;38614;43.472;23.936;2023-04-10T04:43:57;100575.00;;;5.80;100.00
41830;BME280;38614;43.472;23.936;2023-04-10T04:46:55;100575.03;;;5.89;100.00
41830;BME280;38614;43.472;23.936;2023-04-10T04:49:43;100573.16;;;5.98;100.00
41830;BME280;38614;43.472;23.936;2023-04-10T04:52:44;100572.28;;;5.89;100.00
41830;BME280;38614;43.472;23.936;2023-04-10T04:55:50;100573.00;;;6.03;100.00
41830;BME280;38614;43.472;23.936;2023-04-10T04:59:16;100570.47;;;6.15;100.00
41830;BME280;38614;43.472;23.936;2023-04-10T05:02:36;100551.56;;;6.05;100.00
41830;BME280;38614;43.472;23.936;2023-04-10T05:05:47;100563.56;;;6.35;100.00
41830;BME280;38614;43.472;23.936;2023-04-10T05:09:00;100570.22;;;6.51;100.00
41830;BME280;38614;43.472;23.936;2023-04-10T05:12:11;100581.53;;;6.67;100.00
41830;BME280;38614;43.472;23.936;2023-04-10T05:15:25;100583.16;;;6.94;100.00
41830;BME280;38614;43.472;23.936;2023-04-10T05:18:25;100568.25;;;7.12;100.00
41830;BME280;38614;43.472;23.936;2023-04-10T05:21:31;100566.19;;;7.01;100.00
41830;BME280;38614;43.472;23.936;2023-04-10T05:24:37;100572.25;;;7.41;100.00
41830;BME280;38614;43.472;23.936;2023-04-10T05:27:31;100582.09;;;7.51;100.00
41830;BME280;38614;43.472;23.936;2023-04-10T05:30:34;100578.16;;;7.69;100.00
41830;BME280;38614;43.472;23.936;2023-04-10T05:33:40;100585.13;;;7.66;100.00
41830;BME280;38614;43.472;23.936;2023-04-10T05:36:43;100563.72;;;7.72;100.00
41830;BME280;38614;43.472;23.936;2023-04-10T05:39:56;100531.34;;;7.78;100.00
41830;BME280;38614;43.472;23.936;2023-04-10T05:42:54;100582.75;;;8.24;100.00
41830;BME280;38614;43.472;23.936;2023-04-10T05:45:48;100525.97;;;7.43;100.00
41830;BME280;38614;43.472;23.936;2023-04-10T05:48:54;100556.03;;;7.95;100.00
41830;BME280;38614;43.472;23.936;2023-04-10T05:51:57;100580.44;;;7.67;100.00
41830;BME280;38614;43.472;23.936;2023-04-10T05:54:57;100583.69;;;7.60;100.00
41830;BME280;38614;43.472;23.936;2023-04-10T05:58:05;100567.22;;;7.90;100.00
41830;BME280;38614;43.472;23.936;2023-04-10T06:01:11;100595.81;;;8.36;100.00
41830;BME280;38614;43.472;23.936;2023-04-10T06:04:02;100588.59;;;8.52;100.00
41830;BME280;38614;43.472;23.936;2023-04-10T06:06:52;100597.75;;;8.65;100.00
41830;BME280;38614;43.472;23.936;2023-04-10T06:09:40;100573.16;;;8.39;100.00
41830;BME280;38614;43.472;23.936;2023-04-10T06:12:29;100600.69;;;8.39;100.00
41830;BME280;38614;43.472;23.936;2023-04-10T06:15:17;100595.53;;;8.79;100.00
41830;BME280;38614;43.472;23.936;2023-04-10T06:18:05;100591.34;;;9.14;100.00
41830;BME280;38614;43.472;23.936;2023-04-10T06:20:56;100549.03;;;9.43;100.00
41830;BME280;38614;43.472;23.936;2023-04-10T06:23:46;100558.47;;;9.55;100.00
41830;BME280;38614;43.472;23.936;2023-04-10T06:26:34;100567.00;;;9.50;100.00
41830;BME280;38614;43.472;23.936;2023-04-10T06:29:23;100561.41;;;9.83;100.00
41830;BME280;38614;43.472;23.936;2023-04-10T06:32:11;100577.91;;;9.58;100.00
41830;BME280;38614;43.472;23.936;2023-04-10T06:34:59;100514.69;;;9.41;100.00
41830;BME280;38614;43.472;23.936;2023-04-10T06:37:47;100566.91;;;9.83;100.00
41830;BME280;38614;43.472;23.936;2023-04-10T06:40:35;100569.94;;;9.32;100.00
41830;BME280;38614;43.472;23.936;2023-04-10T06:43:23;100587.28;;;9.78;100.00
41830;BME280;38614;43.472;23.936;2023-04-10T06:46:11;100584.72;;;9.73;100.00
41830;BME280;38614;43.472;23.936;2023-04-10T06:48:59;100579.13;;;10.06;100.00
41830;BME280;38614;43.472;23.936;2023-04-10T06:51:47;100561.72;;;10.54;100.00
41830;BME280;38614;43.472;23.936;2023-04-10T06:54:34;100588.63;;;11.38;100.00
41830;BME280;38614;43.472;23.936;2023-04-10T06:57:23;100579.38;;;11.46;100.00
41830;BME280;38614;43.472;23.936;2023-04-10T07:00:11;100595.56;;;11.04;100.00
41830;BME280;38614;43.472;23.936;2023-04-10T07:02:59;100569.41;;;10.73;100.00
41830;BME280;38614;43.472;23.936;2023-04-10T07:05:47;100568.13;;;11.70;100.00
41830;BME280;38614;43.472;23.936;2023-04-10T07:08:34;100580.94;;;12.07;100.00
41830;BME280;38614;43.472;23.936;2023-04-10T07:11:22;100561.84;;;11.86;100.00
41830;BME280;38614;43.472;23.936;2023-04-10T07:14:10;100578.03;;;11.56;100.00
41830;BME280;38614;43.472;23.936;2023-04-10T07:16:58;100580.13;;;11.75;100.00
41830;BME280;38614;43.472;23.936;2023-04-10T07:19:46;100582.09;;;11.90;100.00
41830;BME280;38614;43.472;23.936;2023-04-10T07:22:33;100592.03;;;11.47;100.00
41830;BME280;38614;43.472;23.936;2023-04-10T07:25:21;100583.13;;;11.69;100.00
41830;BME280;38614;43.472;23.936;2023-04-10T07:28:09;100567.75;;;12.35;100.00
41830;BME280;38614;43.472;23.936;2023-04-10T07:30:57;100572.31;;;12.27;100.00
41830;BME280;38614;43.472;23.936;2023-04-10T07:33:45;100582.47;;;12.55;100.00
41830;BME280;38614;43.472;23.936;2023-04-10T07:36:33;100583.34;;;12.59;100.00
41830;BME280;38614;43.472;23.936;2023-04-10T07:39:21;100558.69;;;12.73;100.00
41830;BME280;38614;43.472;23.936;2023-04-10T07:42:10;100579.41;;;13.34;100.00
41830;BME280;38614;43.472;23.936;2023-04-10T07:44:58;100561.84;;;13.10;100.00
41830;BME280;38614;43.472;23.936;2023-04-10T07:47:45;100577.03;;;12.78;100.00
41830;BME280;38614;43.472;23.936;2023-04-10T08:26:19;100568.38;;;14.56;100.00
41830;BME280;38614;43.472;23.936;2023-04-10T08:29:07;100567.56;;;14.55;100.00
41830;BME280;38614;43.472;23.936;2023-04-10T08:31:55;100555.41;;;13.91;100.00
41830;BME280;38614;43.472;23.936;2023-04-10T08:34:48;100527.34;;;13.96;100.00
41830;BME280;38614;43.472;23.936;2023-04-10T08:37:36;100494.69;;;14.16;100.00
41830;BME280;38614;43.472;23.936;2023-04-10T08:40:24;100522.63;;;14.00;100.00
41830;BME280;38614;43.472;23.936;2023-04-10T08:43:11;100561.69;;;14.90;100.00
41830;BME280;38614;43.472;23.936;2023-04-10T08:46:00;100553.56;;;15.08;100.00
41830;BME280;38614;43.472;23.936;2023-04-10T08:49:00;100531.53;;;15.33;100.00
41830;BME280;38614;43.472;23.936;2023-04-10T08:51:56;100528.75;;;14.96;100.00
41830;BME280;38614;43.472;23.936;2023-04-10T08:54:48;100547.78;;;14.34;100.00
41830;BME280;38614;43.472;23.936;2023-04-10T08:57:37;100553.50;;;15.04;100.00
41830;BME280;38614;43.472;23.936;2023-04-10T09:00:35;100552.53;;;14.90;100.00
41830;BME280;38614;43.472;23.936;2023-04-10T09:03:25;100517.91;;;14.87;100.00
41830;BME280;38614;43.472;23.936;2023-04-10T09:06:14;100527.06;;;15.62;100.00
41830;BME280;38614;43.472;23.936;2023-04-10T09:09:02;100527.47;;;15.60;100.00
41830;BME280;38614;43.472;23.936;2023-04-10T09:14:43;100528.56;;;15.96;100.00
41830;BME280;38614;43.472;23.936;2023-04-10T09:17:30;100537.09;;;16.18;100.00
41830;BME280;38614;43.472;23.936;2023-04-10T09:20:22;100526.84;;;16.33;100.00
41830;BME280;38614;43.472;23.936;2023-04-10T09:23:19;100536.78;;;16.30;100.00
41830;BME280;38614;43.472;23.936;2023-04-10T09:26:21;100535.56;;;16.28;100.00
41830;BME280;38614;43.472;23.936;2023-04-10T09:29:10;100528.91;;;15.47;100.00
41830;BME280;38614;43.472;23.936;2023-04-10T09:31:58;100519.16;;;16.19;100.00
41830;BME280;38614;43.472;23.936;2023-04-10T09:34:54;100494.63;;;16.39;100.00
41830;BME280;38614;43.472;23.936;2023-04-10T09:37:45;100523.22;;;17.08;100.00
41830;BME280;38614;43.472;23.936;2023-04-10T09:40:33;100520.69;;;16.09;100.00
41830;BME280;38614;43.472;23.936;2023-04-10T09:43:23;100520.25;;;15.59;100.00
41830;BME280;38614;43.472;23.936;2023-04-10T09:46:11;100494.63;;;15.43;100.00
41830;BME280;38614;43.472;23.936;2023-04-10T09:48:59;100505.88;;;15.98;100.00
41830;BME280;38614;43.472;23.936;2023-04-10T09:51:54;100472.25;;;16.35;100.00
41830;BME280;38614;43.472;23.936;2023-04-10T09:54:42;100504.13;;;17.14;100.00
41830;BME280;38614;43.472;23.936;2023-04-10T09:57:32;100487.84;;;17.70;100.00
41830;BME280;38614;43.472;23.936;2023-04-10T10:00:20;100478.25;;;17.63;100.00
41830;BME280;38614;43.472;23.936;2023-04-10T10:03:15;100464.59;;;17.12;100.00
41830;BME280;38614;43.472;23.936;2023-04-10T10:06:03;100475.34;;;16.96;100.00
41830;BME280;38614;43.472;23.936;2023-04-10T10:08:51;100457.13;;;16.36;100.00
41830;BME280;38614;43.472;23.936;2023-04-10T10:11:40;100480.63;;;17.51;100.00
41830;BME280;38614;43.472;23.936;2023-04-10T10:14:29;100439.50;;;16.14;100.00
41830;BME280;38614;43.472;23.936;2023-04-10T10:17:20;100460.16;;;15.55;100.00
41830;BME280;38614;43.472;23.936;2023-04-10T10:20:10;100478.72;;;16.53;100.00
41830;BME280;38614;43.472;23.936;2023-04-10T10:23:02;100469.44;;;17.22;100.00
41830;BME280;38614;43.472;23.936;2023-04-10T10:25:51;100459.06;;;17.48;100.00
41830;BME280;38614;43.472;23.936;2023-04-10T10:28:40;100453.81;;;18.21;100.00
41830;BME280;38614;43.472;23.936;2023-04-10T10:31:32;100451.91;;;17.97;100.00
41830;BME280;38614;43.472;23.936;2023-04-10T10:34:23;100454.56;;;16.83;100.00
41830;BME280;38614;43.472;23.936;2023-04-10T10:37:12;100437.25;;;16.41;100.00
41830;BME280;38614;43.472;23.936;2023-04-10T10:40:09;100440.63;;;16.86;100.00
41830;BME280;38614;43.472;23.936;2023-04-10T10:43:13;100403.94;;;16.77;100.00
41830;BME280;38614;43.472;23.936;2023-04-10T10:46:09;100398.75;;;16.90;100.00
41830;BME280;38614;43.472;23.936;2023-04-10T10:53:33;100362.13;;;17.13;100.00
41830;BME280;38614;43.472;23.936;2023-04-10T11:02:41;100399.31;;;18.72;100.00
41830;BME280;38614;43.472;23.936;2023-04-10T11:06:01;100396.41;;;17.59;99.05
41830;BME280;38614;43.472;23.936;2023-04-10T11:08:51;100399.97;;;17.85;95.59
41830;BME280;38614;43.472;23.936;2023-04-10T11:12:11;100386.78;;;17.92;92.68
41830;BME280;38614;43.472;23.936;2023-04-10T11:15:01;100380.53;;;18.58;95.17
41830;BME280;38614;43.472;23.936;2023-04-10T11:17:51;100383.91;;;19.01;88.00
41830;BME280;38614;43.472;23.936;2023-04-10T11:21:08;100383.72;;;18.67;88.29
41830;BME280;38614;43.472;23.936;2023-04-10T11:26:44;100370.47;;;17.52;92.11
41830;BME280;38614;43.472;23.936;2023-04-10T11:29:33;100376.44;;;17.47;94.80
41830;BME280;38614;43.472;23.936;2023-04-10T11:32:21;100345.94;;;18.27;89.54
41830;BME280;38614;43.472;23.936;2023-04-10T11:35:10;100361.25;;;18.78;84.97
41830;BME280;38614;43.472;23.936;2023-04-10T11:38:08;100360.88;;;17.81;81.30
41830;BME280;38614;43.472;23.936;2023-04-10T11:40:59;100356.50;;;17.73;85.40
41830;BME280;38614;43.472;23.936;2023-04-10T11:43:55;100355.69;;;17.55;88.77
41830;BME280;38614;43.472;23.936;2023-04-10T11:46:53;100360.88;;;17.78;89.10
41830;BME280;38614;43.472;23.936;2023-04-10T11:49:52;100324.59;;;17.21;88.71
41830;BME280;38614;43.472;23.936;2023-04-10T11:52:42;100347.72;;;17.50;90.22
41830;BME280;38614;43.472;23.936;2023-04-10T11:55:43;100352.81;;;16.55;86.98
41830;BME280;38614;43.472;23.936;2023-04-10T11:58:31;100347.09;;;16.16;93.38
41830;BME280;38614;43.472;23.936;2023-04-10T12:01:20;100273.59;;;15.62;91.48
41830;BME280;38614;43.472;23.936;2023-04-10T12:04:16;100337.84;;;15.98;94.83
41830;BME280;38614;43.472;23.936;2023-04-10T12:07:05;100339.59;;;16.31;90.94
41830;BME280;38614;43.472;23.936;2023-04-10T12:09:58;100310.00;;;16.01;89.11
41830;BME280;38614;43.472;23.936;2023-04-10T12:12:46;100316.84;;;16.25;94.87
41830;BME280;38614;43.472;23.936;2023-04-10T12:15:34;100331.56;;;16.11;90.38
41830;BME280;38614;43.472;23.936;2023-04-10T12:18:22;100308.06;;;15.43;88.98
41830;BME280;38614;43.472;23.936;2023-04-10T12:21:10;100326.63;;;15.80;89.23
41830;BME280;38614;43.472;23.936;2023-04-10T12:23:58;100290.63;;;16.65;89.38
41830;BME280;38614;43.472;23.936;2023-04-10T12:26:46;100296.66;;;16.74;85.24
41830;BME280;38614;43.472;23.936;2023-04-10T12:29:36;100300.28;;;16.78;87.67
41830;BME280;38614;43.472;23.936;2023-04-10T12:32:24;100291.44;;;16.48;85.09
41830;BME280;38614;43.472;23.936;2023-04-10T12:35:13;100279.03;;;16.31;87.32
41830;BME280;38614;43.472;23.936;2023-04-10T12:38:01;100291.84;;;16.64;84.29
41830;BME280;38614;43.472;23.936;2023-04-10T12:40:59;100285.47;;;16.57;89.58
41830;BME280;38614;43.472;23.936;2023-04-10T12:43:47;100288.13;;;16.03;83.91
41830;BME280;38614;43.472;23.936;2023-04-10T12:46:36;100225.91;;;15.81;87.42
41830;BME280;38614;43.472;23.936;2023-04-10T12:49:31;100255.84;;;15.95;85.52
41830;BME280;38614;43.472;23.936;2023-04-10T12:52:22;100263.50;;;16.34;84.76
41830;BME280;38614;43.472;23.936;2023-04-10T12:55:14;100252.03;;;16.89;80.95
41830;BME280;38614;43.472;23.936;2023-04-10T12:58:16;100258.28;;;17.64;76.81
41830;BME280;38614;43.472;23.936;2023-04-10T13:01:06;100259.22;;;18.23;80.78
41830;BME280;38614;43.472;23.936;2023-04-10T13:03:55;100238.00;;;18.30;76.86
41830;BME280;38614;43.472;23.936;2023-04-10T13:06:47;100240.69;;;17.74;77.15
41830;BME280;38614;43.472;23.936;2023-04-10T13:09:35;100247.59;;;17.34;75.78
41830;BME280;38614;43.472;23.936;2023-04-10T13:12:26;100152.75;;;16.45;78.45
41830;BME280;38614;43.472;23.936;2023-04-10T13:15:15;100230.03;;;17.30;78.29
41830;BME280;38614;43.472;23.936;2023-04-10T13:18:03;100222.88;;;17.18;75.58
41830;BME280;38614;43.472;23.936;2023-04-10T13:20:53;100200.59;;;16.90;73.72
41830;BME280;38614;43.472;23.936;2023-04-10T13:23:41;100220.47;;;17.20;75.24
41830;BME280;38614;43.472;23.936;2023-04-10T13:26:29;100217.31;;;16.93;74.39
41830;BME280;38614;43.472;23.936;2023-04-10T13:29:16;100211.69;;;17.18;77.30
41830;BME280;38614;43.472;23.936;2023-04-10T13:32:13;100209.34;;;16.99;73.09
41830;BME280;38614;43.472;23.936;2023-04-10T13:39:09;100225.31;;;17.05;74.33
41830;BME280;38614;43.472;23.936;2023-04-10T13:42:26;100220.00;;;17.54;71.41
41830;BME280;38614;43.472;23.936;2023-04-10T13:45:14;100215.59;;;17.60;71.87
41830;BME280;38614;43.472;23.936;2023-04-10T13:48:02;100222.88;;;17.11;70.16
41830;BME280;38614;43.472;23.936;2023-04-10T13:50:50;100212.56;;;16.79;70.86
41830;BME280;38614;43.472;23.936;2023-04-10T13:53:38;100198.22;;;16.70;74.27
41830;BME280;38614;43.472;23.936;2023-04-10T13:56:25;100211.34;;;16.59;73.61
41830;BME280;38614;43.472;23.936;2023-04-10T13:59:13;100189.41;;;16.65;82.36
41830;BME280;38614;43.472;23.936;2023-04-10T14:02:01;100210.09;;;16.28;80.36
41830;BME280;38614;43.472;23.936;2023-04-10T14:04:49;100205.28;;;16.00;80.96
41830;BME280;38614;43.472;23.936;2023-04-10T14:07:37;100178.22;;;16.04;83.07
41830;BME280;38614;43.472;23.936;2023-04-10T14:10:25;100197.72;;;15.97;83.47
41830;BME280;38614;43.472;23.936;2023-04-10T14:13:13;100179.75;;;15.80;88.41
41830;BME280;38614;43.472;23.936;2023-04-10T14:16:02;100195.63;;;15.73;80.58
41830;BME280;38614;43.472;23.936;2023-04-10T14:18:50;100171.66;;;15.50;80.68
41830;BME280;38614;43.472;23.936;2023-04-10T14:21:38;100171.81;;;15.96;85.35
41830;BME280;38614;43.472;23.936;2023-04-10T14:24:27;100172.84;;;15.53;82.83
41830;BME280;38614;43.472;23.936;2023-04-10T14:27:22;100190.97;;;15.15;90.47
41830;BME280;38614;43.472;23.936;2023-04-10T14:30:10;100175.13;;;14.64;100.00
41830;BME280;38614;43.472;23.936;2023-04-10T14:32:57;100208.38;;;14.49;100.00
41830;BME280;38614;43.472;23.936;2023-04-10T14:35:46;100200.09;;;14.57;100.00
41830;BME280;38614;43.472;23.936;2023-04-10T14:38:34;100197.94;;;13.98;100.00
41830;BME280;38614;43.472;23.936;2023-04-10T14:41:23;100195.41;;;14.23;100.00
41830;BME280;38614;43.472;23.936;2023-04-10T14:44:10;100186.53;;;14.11;100.00
41830;BME280;38614;43.472;23.936;2023-04-10T14:46:58;100192.19;;;14.18;100.00
41830;BME280;38614;43.472;23.936;2023-04-10T14:49:46;100156.38;;;14.13;100.00
41830;BME280;38614;43.472;23.936;2023-04-10T14:52:34;100175.09;;;14.16;100.00
41830;BME280;38614;43.472;23.936;2023-04-10T14:55:21;100185.91;;;14.24;100.00
41830;BME280;38614;43.472;23.936;2023-04-10T14:58:13;100160.56;;;13.92;100.00
41830;BME280;38614;43.472;23.936;2023-04-10T15:01:01;100185.56;;;13.92;100.00
41830;BME280;38614;43.472;23.936;2023-04-10T15:03:51;100198.34;;;14.01;100.00
41830;BME280;38614;43.472;23.936;2023-04-10T15:06:40;100187.22;;;13.97;100.00
41830;BME280;38614;43.472;23.936;2023-04-10T15:09:28;100201.97;;;14.05;100.00
41830;BME280;38614;43.472;23.936;2023-04-10T15:12:15;100204.13;;;14.22;100.00
41830;BME280;38614;43.472;23.936;2023-04-10T15:15:07;100159.97;;;13.73;100.00
41830;BME280;38614;43.472;23.936;2023-04-10T15:17:54;100206.66;;;13.97;100.00
41830;BME280;38614;43.472;23.936;2023-04-10T15:20:42;100176.53;;;13.65;100.00
41830;BME280;38614;43.472;23.936;2023-04-10T15:23:33;100195.97;;;13.65;100.00
41830;BME280;38614;43.472;23.936;2023-04-10T15:26:20;100200.28;;;13.59;100.00
41830;BME280;38614;43.472;23.936;2023-04-10T15:29:11;100221.50;;;13.45;100.00
41830;BME280;38614;43.472;23.936;2023-04-10T15:32:02;100208.53;;;12.99;100.00
41830;BME280;38614;43.472;23.936;2023-04-10T15:34:50;100200.16;;;12.69;100.00
41830;BME280;38614;43.472;23.936;2023-04-10T15:37:38;100184.03;;;12.52;100.00
41830;BME280;38614;43.472;23.936;2023-04-10T15:40:28;100197.78;;;12.45;100.00
41830;BME280;38614;43.472;23.936;2023-04-10T15:43:25;100215.91;;;12.39;100.00
41830;BME280;38614;43.472;23.936;2023-04-10T15:46:13;100222.16;;;12.13;100.00
41830;BME280;38614;43.472;23.936;2023-04-10T15:49:03;100211.03;;;11.90;100.00
41830;BME280;38614;43.472;23.936;2023-04-10T15:51:53;100200.16;;;11.62;100.00
41830;BME280;38614;43.472;23.936;2023-04-10T15:54:43;100216.56;;;11.51;100.00